^^
Your Local Weather - Clay, NY Station Historical Data
Daily Summary for February 13, 2018 Units:  Both    English   Metric
« Previous Day
Next Day »
Daily Weekly Monthly Yearly Custom
  High: Low: Average:
Temperature: 27.3 °F /  -2.6 °C 12.7 °F /  -10.7 °C 22.3 °F /  -5.4 °C
Dew Point: 14.3 °F /  -9.8 °C 5.9 °F /  -14.5 °C 10.3 °F /  -12.1 °C
Humidity: 75% 48% 60%
Wind Speed: 4.0mph /  6.4km/h - 1.4mph /  2.3km/h
Wind Gust: 8.0mph /  12.9km/h - -
Wind- - South
Pressure: 30.84 in /  1044.2 hPa 30.36 in /  1028 hPa -
Precipitation: 0.00 in /  0 mm    
Historical Graphs
 
 
Tabular Data for February 13, 2018
Time Temperature Dew Point Pressure Wind Wind Speed Wind Gust Humidity Rainfall Rate (Hourly) solar
00:00 21.9 °F /  -5.6 °C 12.6 °F /  -10.8 °C 30.75in /  1041.2hPa NW 2.0mph /  3.2km/h 2.0mph /  3.2km/h 67% 0.00in /  0mm 0 W/m2
00:06 21.9 °F /  -5.6 °C 12.3 °F /  -10.9 °C 30.75in /  1041.2hPa NNW 2.0mph /  3.2km/h 3.0mph /  4.8km/h 66% 0.00in /  0mm 0 W/m2
00:12 21.9 °F /  -5.6 °C 12.3 °F /  -10.9 °C 30.75in /  1041.2hPa NNW 2.0mph /  3.2km/h 2.0mph /  3.2km/h 66% 0.00in /  0mm 0 W/m2
00:18 21.9 °F /  -5.6 °C 12.3 °F /  -10.9 °C 30.76in /  1041.5hPa NW 2.0mph /  3.2km/h 2.0mph /  3.2km/h 66% 0.00in /  0mm 0 W/m2
00:24 21.9 °F /  -5.6 °C 12.3 °F /  -10.9 °C 30.76in /  1041.5hPa NW 2.0mph /  3.2km/h 4.0mph /  6.4km/h 66% 0.00in /  0mm 0 W/m2
00:30 21.8 °F /  -5.7 °C 12.2 °F /  -11 °C 30.76in /  1041.5hPa NW 2.0mph /  3.2km/h 4.0mph /  6.4km/h 66% 0.00in /  0mm 0 W/m2
00:36 21.8 °F /  -5.7 °C 12.2 °F /  -11 °C 30.76in /  1041.5hPa NNW 2.0mph /  3.2km/h 4.0mph /  6.4km/h 66% 0.00in /  0mm 0 W/m2
00:42 21.7 °F /  -5.7 °C 12.1 °F /  -11.1 °C 30.76in /  1041.5hPa NW 2.0mph /  3.2km/h 2.0mph /  3.2km/h 66% 0.00in /  0mm 0 W/m2
00:48 21.7 °F /  -5.7 °C 11.7 °F /  -11.3 °C 30.76in /  1041.5hPa NNW 3.0mph /  4.8km/h 5.0mph /  8km/h 65% 0.00in /  0mm 0 W/m2
00:54 21.7 °F /  -5.7 °C 11.7 °F /  -11.3 °C 30.76in /  1041.5hPa NW 3.0mph /  4.8km/h 5.0mph /  8km/h 65% 0.00in /  0mm 0 W/m2
01:00 21.6 °F /  -5.8 °C 11.6 °F /  -11.3 °C 30.76in /  1041.5hPa North 2.0mph /  3.2km/h 2.0mph /  3.2km/h 65% 0.00in /  0mm 0 W/m2
01:06 21.6 °F /  -5.8 °C 12.0 °F /  -11.1 °C 30.76in /  1041.5hPa NNW 2.0mph /  3.2km/h 3.0mph /  4.8km/h 66% 0.00in /  0mm 0 W/m2
01:12 21.5 °F /  -5.8 °C 11.9 °F /  -11.2 °C 30.76in /  1041.5hPa NNW 2.0mph /  3.2km/h 6.0mph /  9.7km/h 66% 0.00in /  0mm 0 W/m2
01:18 21.4 °F /  -5.9 °C 11.5 °F /  -11.4 °C 30.77in /  1041.9hPa NNW 3.0mph /  4.8km/h 6.0mph /  9.7km/h 65% 0.00in /  0mm 0 W/m2
01:24 21.4 °F /  -5.9 °C 11.5 °F /  -11.4 °C 30.77in /  1041.9hPa NNW 3.0mph /  4.8km/h 3.0mph /  4.8km/h 65% 0.00in /  0mm 0 W/m2
01:30 21.3 °F /  -5.9 °C 11.4 °F /  -11.4 °C 30.78in /  1042.2hPa NW 2.0mph /  3.2km/h 4.0mph /  6.4km/h 65% 0.00in /  0mm 0 W/m2
01:36 21.2 °F /  -6 °C 11.3 °F /  -11.5 °C 30.78in /  1042.2hPa NW 3.0mph /  4.8km/h 4.0mph /  6.4km/h 65% 0.00in /  0mm 0 W/m2
01:42 21.2 °F /  -6 °C 11.3 °F /  -11.5 °C 30.78in /  1042.2hPa NW 2.0mph /  3.2km/h 2.0mph /  3.2km/h 65% 0.00in /  0mm 0 W/m2
01:48 21.1 °F /  -6.1 °C 11.5 °F /  -11.4 °C 30.78in /  1042.2hPa North 1.0mph /  1.6km/h 3.0mph /  4.8km/h 66% 0.00in /  0mm 0 W/m2
01:54 21.0 °F /  -6.1 °C 11.4 °F /  -11.4 °C 30.78in /  1042.2hPa NNW 2.0mph /  3.2km/h 3.0mph /  4.8km/h 66% 0.00in /  0mm 0 W/m2
02:00 21.0 °F /  -6.1 °C 11.4 °F /  -11.4 °C 30.78in /  1042.2hPa NW 3.0mph /  4.8km/h 3.0mph /  4.8km/h 66% 0.00in /  0mm 0 W/m2
02:06 20.9 °F /  -6.2 °C 11.3 °F /  -11.5 °C 30.78in /  1042.2hPa NNW 2.0mph /  3.2km/h 5.0mph /  8km/h 66% 0.00in /  0mm 0 W/m2
02:12 20.9 °F /  -6.2 °C 11.3 °F /  -11.5 °C 30.78in /  1042.2hPa NNW 2.0mph /  3.2km/h 2.0mph /  3.2km/h 66% 0.00in /  0mm 0 W/m2
02:18 20.8 °F /  -6.2 °C 11.2 °F /  -11.6 °C 30.79in /  1042.5hPa NW 2.0mph /  3.2km/h 3.0mph /  4.8km/h 66% 0.00in /  0mm 0 W/m2
02:24 20.8 °F /  -6.2 °C 11.2 °F /  -11.6 °C 30.78in /  1042.2hPa NNW 2.0mph /  3.2km/h 3.0mph /  4.8km/h 66% 0.00in /  0mm 0 W/m2
02:30 20.8 °F /  -6.2 °C 11.2 °F /  -11.6 °C 30.78in /  1042.2hPa NNW 2.0mph /  3.2km/h 2.0mph /  3.2km/h 66% 0.00in /  0mm 0 W/m2
02:36 20.8 °F /  -6.2 °C 11.2 °F /  -11.6 °C 30.79in /  1042.5hPa North 1.0mph /  1.6km/h 3.0mph /  4.8km/h 66% 0.00in /  0mm 0 W/m2
02:42 20.7 °F /  -6.3 °C 11.1 °F /  -11.6 °C 30.78in /  1042.2hPa NNW 2.0mph /  3.2km/h 4.0mph /  6.4km/h 66% 0.00in /  0mm 0 W/m2
02:48 20.7 °F /  -6.3 °C 11.1 °F /  -11.6 °C 30.79in /  1042.5hPa North 2.0mph /  3.2km/h 4.0mph /  6.4km/h 66% 0.00in /  0mm 0 W/m2
02:54 20.6 °F /  -6.3 °C 11.0 °F /  -11.7 °C 30.79in /  1042.5hPa NNW 2.0mph /  3.2km/h 2.0mph /  3.2km/h 66% 0.00in /  0mm 0 W/m2
03:00 20.6 °F /  -6.3 °C 11.0 °F /  -11.7 °C 30.79in /  1042.5hPa NW 2.0mph /  3.2km/h 3.0mph /  4.8km/h 66% 0.00in /  0mm 0 W/m2
03:06 20.6 °F /  -6.3 °C 11.0 °F /  -11.7 °C 30.78in /  1042.2hPa NW 2.0mph /  3.2km/h 3.0mph /  4.8km/h 66% 0.00in /  0mm 0 W/m2
03:12 20.5 °F /  -6.4 °C 10.9 °F /  -11.7 °C 30.79in /  1042.5hPa NNW 1.0mph /  1.6km/h 2.0mph /  3.2km/h 66% 0.00in /  0mm 0 W/m2
03:18 20.5 °F /  -6.4 °C 10.9 °F /  -11.7 °C 30.79in /  1042.5hPa NW 2.0mph /  3.2km/h 3.0mph /  4.8km/h 66% 0.00in /  0mm 0 W/m2
03:24 20.6 °F /  -6.3 °C 11.0 °F /  -11.7 °C 30.79in /  1042.5hPa NW 2.0mph /  3.2km/h 2.0mph /  3.2km/h 66% 0.00in /  0mm 0 W/m2
03:30 20.4 °F /  -6.4 °C 11.2 °F /  -11.6 °C 30.79in /  1042.5hPa Calm   2.0mph /  3.2km/h 67% 0.00in /  0mm 0 W/m2
03:36 20.4 °F /  -6.4 °C 11.2 °F /  -11.6 °C 30.79in /  1042.5hPa Calm   2.0mph /  3.2km/h 67% 0.00in /  0mm 0 W/m2
03:46 20.4 °F /  -6.4 °C 11.2 °F /  -11.6 °C 30.79in /  1042.5hPa NW 1.0mph /  1.6km/h 2.0mph /  3.2km/h 67% 0.00in /  0mm 0 W/m2
03:52 20.4 °F /  -6.4 °C 11.2 °F /  -11.6 °C 30.78in /  1042.2hPa NW 1.0mph /  1.6km/h 2.0mph /  3.2km/h 67% 0.00in /  0mm 0 W/m2
03:58 20.3 °F /  -6.5 °C 11.1 °F /  -11.6 °C 30.78in /  1042.2hPa NW 1.0mph /  1.6km/h 2.0mph /  3.2km/h 67% 0.00in /  0mm 0 W/m2
04:04 20.3 °F /  -6.5 °C 11.1 °F /  -11.6 °C 30.79in /  1042.5hPa NW 1.0mph /  1.6km/h 2.0mph /  3.2km/h 67% 0.00in /  0mm 0 W/m2
04:10 20.3 °F /  -6.5 °C 11.1 °F /  -11.6 °C 30.80in /  1042.9hPa NW 1.0mph /  1.6km/h 1.0mph /  1.6km/h 67% 0.00in /  0mm 0 W/m2
04:16 20.3 °F /  -6.5 °C 10.7 °F /  -11.8 °C 30.79in /  1042.5hPa NNW 2.0mph /  3.2km/h 2.0mph /  3.2km/h 66% 0.00in /  0mm 0 W/m2
04:23 20.3 °F /  -6.5 °C 10.7 °F /  -11.8 °C 30.79in /  1042.5hPa NNW 2.0mph /  3.2km/h 3.0mph /  4.8km/h 66% 0.00in /  0mm 0 W/m2
04:28 20.2 °F /  -6.6 °C 10.6 °F /  -11.9 °C 30.79in /  1042.5hPa NNW 1.0mph /  1.6km/h 4.0mph /  6.4km/h 66% 0.00in /  0mm 0 W/m2
04:34 20.2 °F /  -6.6 °C 10.6 °F /  -11.9 °C 30.80in /  1042.9hPa NNW 2.0mph /  3.2km/h 3.0mph /  4.8km/h 66% 0.00in /  0mm 0 W/m2
04:40 20.2 °F /  -6.6 °C 10.3 °F /  -12.1 °C 30.80in /  1042.9hPa NNW 2.0mph /  3.2km/h 3.0mph /  4.8km/h 65% 0.00in /  0mm 0 W/m2
04:46 20.2 °F /  -6.6 °C 10.0 °F /  -12.2 °C 30.80in /  1042.9hPa NNW 2.0mph /  3.2km/h 3.0mph /  4.8km/h 64% 0.00in /  0mm 0 W/m2
04:52 20.1 °F /  -6.6 °C 10.2 °F /  -12.1 °C 30.80in /  1042.9hPa NNW 1.0mph /  1.6km/h 1.0mph /  1.6km/h 65% 0.00in /  0mm 0 W/m2
04:58 20.0 °F /  -6.7 °C 9.8 °F /  -12.3 °C 30.81in /  1043.2hPa NNW 1.0mph /  1.6km/h 3.0mph /  4.8km/h 64% 0.00in /  0mm 0 W/m2
05:04 20.0 °F /  -6.7 °C 9.8 °F /  -12.3 °C 30.80in /  1042.9hPa NNW 1.0mph /  1.6km/h 3.0mph /  4.8km/h 64% 0.00in /  0mm 0 W/m2
05:10 19.9 °F /  -6.7 °C 10.0 °F /  -12.2 °C 30.80in /  1042.9hPa NNW 1.0mph /  1.6km/h 1.0mph /  1.6km/h 65% 0.00in /  0mm 0 W/m2
05:16 19.8 °F /  -6.8 °C 9.6 °F /  -12.4 °C 30.80in /  1042.9hPa NNW 1.0mph /  1.6km/h 1.0mph /  1.6km/h 64% 0.00in /  0mm 0 W/m2
05:22 19.7 °F /  -6.8 °C 9.8 °F /  -12.3 °C 30.80in /  1042.9hPa NNW 1.0mph /  1.6km/h 1.0mph /  1.6km/h 65% 0.00in /  0mm 0 W/m2
05:28 19.6 °F /  -6.9 °C 9.7 °F /  -12.4 °C 30.81in /  1043.2hPa Calm   1.0mph /  1.6km/h 65% 0.00in /  0mm 0 W/m2
05:34 19.4 °F /  -7 °C 9.5 °F /  -12.5 °C 30.81in /  1043.2hPa Calm   3.0mph /  4.8km/h 65% 0.00in /  0mm 0 W/m2
05:40 19.3 °F /  -7.1 °C 9.4 °F /  -12.6 °C 30.81in /  1043.2hPa Calm     65% 0.00in /  0mm 0 W/m2
05:46 19.2 °F /  -7.1 °C 9.4 °F /  -12.6 °C 30.81in /  1043.2hPa NNW 1.0mph /  1.6km/h 2.0mph /  3.2km/h 65% 0.00in /  0mm 0 W/m2
05:52 19.0 °F /  -7.2 °C 8.8 °F /  -12.9 °C 30.81in /  1043.2hPa NNW 1.0mph /  1.6km/h 1.0mph /  1.6km/h 64% 0.00in /  0mm 0 W/m2
05:58 18.8 °F /  -7.3 °C 9.0 °F /  -12.8 °C 30.82in /  1043.6hPa Calm   1.0mph /  1.6km/h 65% 0.00in /  0mm 0 W/m2
06:04 18.7 °F /  -7.4 °C 8.9 °F /  -12.8 °C 30.81in /  1043.2hPa Calm     65% 0.00in /  0mm 0 W/m2
06:10 18.6 °F /  -7.4 °C 8.8 °F /  -12.9 °C 30.81in /  1043.2hPa Calm     65% 0.00in /  0mm 0 W/m2
06:16 18.4 °F /  -7.6 °C 8.9 °F /  -12.8 °C 30.82in /  1043.6hPa Calm     66% 0.00in /  0mm 0 W/m2
06:22 18.2 °F /  -7.7 °C 8.7 °F /  -12.9 °C 30.82in /  1043.6hPa Calm     66% 0.00in /  0mm 0 W/m2
06:28 17.9 °F /  -7.8 °C 8.8 °F /  -12.9 °C 30.81in /  1043.2hPa Calm     67% 0.00in /  0mm 0 W/m2
06:34 17.7 °F /  -7.9 °C 8.6 °F /  -13 °C 30.81in /  1043.2hPa Calm     67% 0.00in /  0mm 0 W/m2
06:40 17.4 °F /  -8.1 °C 8.6 °F /  -13 °C 30.81in /  1043.2hPa Calm     68% 0.00in /  0mm 0 W/m2
06:46 17.0 °F /  -8.3 °C 8.3 °F /  -13.2 °C 30.80in /  1042.9hPa Calm     68% 0.00in /  0mm 0 W/m2
06:52 16.4 °F /  -8.7 °C 8.0 °F /  -13.3 °C 30.81in /  1043.2hPa Calm     69% 0.00in /  0mm 0 W/m2
06:58 15.7 °F /  -9.1 °C 7.6 °F /  -13.6 °C 30.81in /  1043.2hPa Calm   1.0mph /  1.6km/h 70% 0.00in /  0mm 0 W/m2
07:04 15.2 °F /  -9.3 °C 7.5 °F /  -13.6 °C 30.81in /  1043.2hPa NNW 1.0mph /  1.6km/h 3.0mph /  4.8km/h 71% 0.00in /  0mm 5 W/m2
07:10 15.0 °F /  -9.4 °C 7.3 °F /  -13.7 °C 30.81in /  1043.2hPa NNW 1.0mph /  1.6km/h 1.0mph /  1.6km/h 71% 0.00in /  0mm 7 W/m2
07:16 14.6 °F /  -9.7 °C 6.9 °F /  -13.9 °C 30.82in /  1043.6hPa Calm   1.0mph /  1.6km/h 71% 0.00in /  0mm 9 W/m2
07:22 14.3 °F /  -9.8 °C 6.6 °F /  -14.1 °C 30.82in /  1043.6hPa Calm     71% 0.00in /  0mm 12 W/m2
07:28 13.9 °F /  -10.1 °C 6.5 °F /  -14.2 °C 30.82in /  1043.6hPa Calm     72% 0.00in /  0mm 14 W/m2
07:34 13.5 °F /  -10.3 °C 6.1 °F /  -14.4 °C 30.82in /  1043.6hPa Calm     72% 0.00in /  0mm 16 W/m2
07:40 13.2 °F /  -10.4 °C 6.2 °F /  -14.3 °C 30.83in /  1043.9hPa Calm     73% 0.00in /  0mm 19 W/m2
07:46 12.9 °F /  -10.6 °C 5.9 °F /  -14.5 °C 30.83in /  1043.9hPa Calm     73% 0.00in /  0mm 25 W/m2
07:52 12.7 °F /  -10.7 °C 6.0 °F /  -14.4 °C 30.83in /  1043.9hPa Calm     74% 0.00in /  0mm 35 W/m2
07:58 12.7 °F /  -10.7 °C 6.0 °F /  -14.4 °C 30.83in /  1043.9hPa Calm     74% 0.00in /  0mm 35 W/m2
08:04 12.7 °F /  -10.7 °C 6.3 °F /  -14.3 °C 30.83in /  1043.9hPa Calm     75% 0.00in /  0mm 67 W/m2
08:10 13.0 °F /  -10.6 °C 6.6 °F /  -14.1 °C 30.83in /  1043.9hPa Calm   2.0mph /  3.2km/h 75% 0.00in /  0mm 86 W/m2
08:16 13.7 °F /  -10.2 °C 7.2 °F /  -13.8 °C 30.83in /  1043.9hPa Calm   2.0mph /  3.2km/h 75% 0.00in /  0mm 121 W/m2
08:22 14.6 °F /  -9.7 °C 7.8 °F /  -13.4 °C 30.83in /  1043.9hPa Calm   2.0mph /  3.2km/h 74% 0.00in /  0mm 193 W/m2
08:28 15.9 °F /  -8.9 °C 8.2 °F /  -13.2 °C 30.84in /  1044.2hPa East 1.0mph /  1.6km/h 3.0mph /  4.8km/h 71% 0.00in /  0mm 213 W/m2
08:34 16.8 °F /  -8.4 °C 7.7 °F /  -13.5 °C 30.83in /  1043.9hPa ENE 1.0mph /  1.6km/h 3.0mph /  4.8km/h 67% 0.00in /  0mm 190 W/m2
08:40 17.0 °F /  -8.3 °C 7.3 °F /  -13.7 °C 30.84in /  1044.2hPa East 2.0mph /  3.2km/h 5.0mph /  8km/h 65% 0.00in /  0mm 272 W/m2
08:46 17.4 °F /  -8.1 °C 7.3 °F /  -13.7 °C 30.84in /  1044.2hPa East 2.0mph /  3.2km/h 5.0mph /  8km/h 64% 0.00in /  0mm 276 W/m2
08:52 17.8 °F /  -7.9 °C 7.3 °F /  -13.7 °C 30.84in /  1044.2hPa East 2.0mph /  3.2km/h 2.0mph /  3.2km/h 63% 0.00in /  0mm 295 W/m2
08:58 18.3 °F /  -7.6 °C 7.4 °F /  -13.7 °C 30.84in /  1044.2hPa East 1.0mph /  1.6km/h 3.0mph /  4.8km/h 62% 0.00in /  0mm 271 W/m2
09:04 18.2 °F /  -7.7 °C 7.3 °F /  -13.7 °C 30.84in /  1044.2hPa East 2.0mph /  3.2km/h 3.0mph /  4.8km/h 62% 0.00in /  0mm 236 W/m2
09:10 18.7 °F /  -7.4 °C 7.8 °F /  -13.4 °C 30.84in /  1044.2hPa SE 1.0mph /  1.6km/h 3.0mph /  4.8km/h 62% 0.00in /  0mm 290 W/m2
09:16 19.1 °F /  -7.2 °C 7.5 °F /  -13.6 °C 30.84in /  1044.2hPa SE 2.0mph /  3.2km/h 3.0mph /  4.8km/h 60% 0.00in /  0mm 315 W/m2
09:22 19.1 °F /  -7.2 °C 7.8 °F /  -13.4 °C 30.84in /  1044.2hPa SE 1.0mph /  1.6km/h 2.0mph /  3.2km/h 61% 0.00in /  0mm 285 W/m2
09:28 20.2 °F /  -6.6 °C 8.1 °F /  -13.3 °C 30.84in /  1044.2hPa Calm   4.0mph /  6.4km/h 59% 0.00in /  0mm 246 W/m2
09:34 19.7 °F /  -6.8 °C 8.0 °F /  -13.3 °C 30.84in /  1044.2hPa SE 1.0mph /  1.6km/h 3.0mph /  4.8km/h 60% 0.00in /  0mm 213 W/m2
09:40 19.8 °F /  -6.8 °C 8.1 °F /  -13.3 °C 30.84in /  1044.2hPa SE 1.0mph /  1.6km/h 1.0mph /  1.6km/h 60% 0.00in /  0mm 420 W/m2
09:46 21.8 °F /  -5.7 °C 9.3 °F /  -12.6 °C 30.84in /  1044.2hPa SE 1.0mph /  1.6km/h 1.0mph /  1.6km/h 58% 0.00in /  0mm 432 W/m2
09:52 22.3 °F /  -5.4 °C 9.4 °F /  -12.6 °C 30.84in /  1044.2hPa Calm     57% 0.00in /  0mm 392 W/m2
09:58 23.2 °F /  -4.9 °C 9.0 °F /  -12.8 °C 30.83in /  1043.9hPa Calm   2.0mph /  3.2km/h 54% 0.00in /  0mm 475 W/m2
10:04 22.0 °F /  -5.6 °C 8.7 °F /  -12.9 °C 30.83in /  1043.9hPa Calm     56% 0.00in /  0mm 408 W/m2
10:10 22.0 °F /  -5.6 °C 8.7 °F /  -12.9 °C 30.83in /  1043.9hPa SE 1.0mph /  1.6km/h 4.0mph /  6.4km/h 56% 0.00in /  0mm 496 W/m2
10:16 21.4 °F /  -5.9 °C 8.5 °F /  -13.1 °C 30.83in /  1043.9hPa SE 2.0mph /  3.2km/h 4.0mph /  6.4km/h 57% 0.00in /  0mm 429 W/m2
10:22 23.7 °F /  -4.6 °C 9.9 °F /  -12.3 °C 30.83in /  1043.9hPa SE 1.0mph /  1.6km/h 1.0mph /  1.6km/h 55% 0.00in /  0mm 517 W/m2
10:28 24.0 °F /  -4.4 °C 9.7 °F /  -12.4 °C 30.82in /  1043.6hPa Calm   5.0mph /  8km/h 54% 0.00in /  0mm 526 W/m2
10:34 22.8 °F /  -5.1 °C 9.0 °F /  -12.8 °C 30.82in /  1043.6hPa NNE 2.0mph /  3.2km/h 4.0mph /  6.4km/h 55% 0.00in /  0mm 533 W/m2
10:40 23.3 °F /  -4.8 °C 9.9 °F /  -12.3 °C 30.82in /  1043.6hPa NE 1.0mph /  1.6km/h 1.0mph /  1.6km/h 56% 0.00in /  0mm 552 W/m2
10:46 24.4 °F /  -4.2 °C 10.5 °F /  -11.9 °C 30.81in /  1043.2hPa NE 1.0mph /  1.6km/h 1.0mph /  1.6km/h 55% 0.00in /  0mm 561 W/m2
10:52 26.0 °F /  -3.3 °C 11.2 °F /  -11.6 °C 30.81in /  1043.2hPa Calm   1.0mph /  1.6km/h 53% 0.00in /  0mm 568 W/m2
10:58 26.1 °F /  -3.3 °C 10.4 °F /  -12 °C 30.81in /  1043.2hPa Calm   1.0mph /  1.6km/h 51% 0.00in /  0mm 589 W/m2
11:04 25.0 °F /  -3.9 °C 9.8 °F /  -12.3 °C 30.81in /  1043.2hPa Calm   2.0mph /  3.2km/h 52% 0.00in /  0mm 596 W/m2
11:10 25.7 °F /  -3.5 °C 10.0 °F /  -12.2 °C 30.81in /  1043.2hPa NW 1.0mph /  1.6km/h 1.0mph /  1.6km/h 51% 0.00in /  0mm 610 W/m2
11:16 25.7 °F /  -3.5 °C 9.6 °F /  -12.4 °C 30.80in /  1042.9hPa NW 1.0mph /  1.6km/h 1.0mph /  1.6km/h 50% 0.00in /  0mm 596 W/m2
11:22 24.6 °F /  -4.1 °C 9.0 °F /  -12.8 °C 30.80in /  1042.9hPa Calm   2.0mph /  3.2km/h 51% 0.00in /  0mm 496 W/m2
11:28 25.1 °F /  -3.8 °C 9.5 °F /  -12.5 °C 30.80in /  1042.9hPa Calm   3.0mph /  4.8km/h 51% 0.00in /  0mm 529 W/m2
11:34 25.4 °F /  -3.7 °C 10.2 °F /  -12.1 °C 30.79in /  1042.5hPa NW 1.0mph /  1.6km/h 2.0mph /  3.2km/h 52% 0.00in /  0mm 548 W/m2
11:40 24.6 °F /  -4.1 °C 9.5 °F /  -12.5 °C 30.79in /  1042.5hPa NW 1.0mph /  1.6km/h 3.0mph /  4.8km/h 52% 0.00in /  0mm 547 W/m2
11:46 24.1 °F /  -4.4 °C 9.4 °F /  -12.6 °C 30.78in /  1042.2hPa SW 2.0mph /  3.2km/h 4.0mph /  6.4km/h 53% 0.00in /  0mm 561 W/m2
11:52 25.5 °F /  -3.6 °C 9.4 °F /  -12.6 °C 30.78in /  1042.2hPa SW 2.0mph /  3.2km/h 2.0mph /  3.2km/h 50% 0.00in /  0mm 526 W/m2
11:58 25.0 °F /  -3.9 °C 9.4 °F /  -12.6 °C 30.78in /  1042.2hPa ESE 1.0mph /  1.6km/h 3.0mph /  4.8km/h 51% 0.00in /  0mm 504 W/m2
12:04 24.7 °F /  -4.1 °C 9.5 °F /  -12.5 °C 30.77in /  1041.9hPa SE 2.0mph /  3.2km/h 2.0mph /  3.2km/h 52% 0.00in /  0mm 480 W/m2
12:10 24.5 °F /  -4.2 °C 9.8 °F /  -12.3 °C 30.77in /  1041.9hPa South 2.0mph /  3.2km/h 4.0mph /  6.4km/h 53% 0.00in /  0mm 424 W/m2
12:16 24.3 °F /  -4.3 °C 9.2 °F /  -12.7 °C 30.77in /  1041.9hPa South 3.0mph /  4.8km/h 4.0mph /  6.4km/h 52% 0.00in /  0mm 394 W/m2
12:22 25.2 °F /  -3.8 °C 9.6 °F /  -12.4 °C 30.76in /  1041.5hPa South 1.0mph /  1.6km/h 2.0mph /  3.2km/h 51% 0.00in /  0mm 536 W/m2
12:28 25.2 °F /  -3.8 °C 9.1 °F /  -12.7 °C 30.75in /  1041.2hPa SSW 2.0mph /  3.2km/h 3.0mph /  4.8km/h 50% 0.00in /  0mm 547 W/m2
12:34 24.7 °F /  -4.1 °C 9.1 °F /  -12.7 °C 30.75in /  1041.2hPa SSE 3.0mph /  4.8km/h 3.0mph /  4.8km/h 51% 0.00in /  0mm 533 W/m2
12:40 25.9 °F /  -3.4 °C 9.3 °F /  -12.6 °C 30.75in /  1041.2hPa SSE 1.0mph /  1.6km/h 1.0mph /  1.6km/h 49% 0.00in /  0mm 490 W/m2
12:46 26.5 °F /  -3.1 °C 9.9 °F /  -12.3 °C 30.74in /  1040.9hPa SSW 1.0mph /  1.6km/h 3.0mph /  4.8km/h 49% 0.00in /  0mm 403 W/m2
12:52 25.1 °F /  -3.8 °C 9.0 °F /  -12.8 °C 30.74in /  1040.9hPa East 2.0mph /  3.2km/h 3.0mph /  4.8km/h 50% 0.00in /  0mm 369 W/m2
12:58 25.5 °F /  -3.6 °C 9.9 °F /  -12.3 °C 30.74in /  1040.9hPa ESE 1.0mph /  1.6km/h 3.0mph /  4.8km/h 51% 0.00in /  0mm 527 W/m2
13:04 25.6 °F /  -3.6 °C 9.5 °F /  -12.5 °C 30.73in /  1040.5hPa SSE 2.0mph /  3.2km/h 7.0mph /  11.3km/h 50% 0.00in /  0mm 411 W/m2
13:10 25.7 °F /  -3.5 °C 9.6 °F /  -12.4 °C 30.73in /  1040.5hPa SW 3.0mph /  4.8km/h 3.0mph /  4.8km/h 50% 0.00in /  0mm 350 W/m2
13:16 25.7 °F /  -3.5 °C 9.2 °F /  -12.7 °C 30.72in /  1040.2hPa SW 1.0mph /  1.6km/h 3.0mph /  4.8km/h 49% 0.00in /  0mm 445 W/m2
13:22 26.1 °F /  -3.3 °C 10.4 °F /  -12 °C 30.72in /  1040.2hPa SW 1.0mph /  1.6km/h 1.0mph /  1.6km/h 51% 0.00in /  0mm 427 W/m2
13:28 25.6 °F /  -3.6 °C 9.5 °F /  -12.5 °C 30.72in /  1040.2hPa South 1.0mph /  1.6km/h 4.0mph /  6.4km/h 50% 0.00in /  0mm 385 W/m2
13:34 25.6 °F /  -3.6 °C 10.0 °F /  -12.2 °C 30.72in /  1040.2hPa SE 2.0mph /  3.2km/h 4.0mph /  6.4km/h 51% 0.00in /  0mm 392 W/m2
13:40 25.7 °F /  -3.5 °C 10.5 °F /  -11.9 °C 30.71in /  1039.8hPa SE 2.0mph /  3.2km/h 4.0mph /  6.4km/h 52% 0.00in /  0mm 366 W/m2
13:46 25.8 °F /  -3.4 °C 10.1 °F /  -12.2 °C 30.70in /  1039.5hPa SE 2.0mph /  3.2km/h 4.0mph /  6.4km/h 51% 0.00in /  0mm 330 W/m2
13:52 27.3 °F /  -2.6 °C 11.1 °F /  -11.6 °C 30.70in /  1039.5hPa SE 1.0mph /  1.6km/h 1.0mph /  1.6km/h 50% 0.00in /  0mm 327 W/m2
13:58 26.6 °F /  -3 °C 10.9 °F /  -11.7 °C 30.70in /  1039.5hPa ESE 1.0mph /  1.6km/h 2.0mph /  3.2km/h 51% 0.00in /  0mm 394 W/m2
14:04 26.3 °F /  -3.2 °C 11.0 °F /  -11.7 °C 30.69in /  1039.2hPa East 2.0mph /  3.2km/h 4.0mph /  6.4km/h 52% 0.00in /  0mm 411 W/m2
14:10 25.9 °F /  -3.4 °C 10.7 °F /  -11.8 °C 30.69in /  1039.2hPa NE 4.0mph /  6.4km/h 4.0mph /  6.4km/h 52% 0.00in /  0mm 404 W/m2
14:16 26.2 °F /  -3.2 °C 11.4 °F /  -11.4 °C 30.68in /  1038.8hPa NE 3.0mph /  4.8km/h 5.0mph /  8km/h 53% 0.00in /  0mm 411 W/m2
14:22 26.1 °F /  -3.3 °C 11.3 °F /  -11.5 °C 30.67in /  1038.5hPa ENE 3.0mph /  4.8km/h 4.0mph /  6.4km/h 53% 0.00in /  0mm 429 W/m2
14:28 26.1 °F /  -3.3 °C 11.7 °F /  -11.3 °C 30.67in /  1038.5hPa NNE 3.0mph /  4.8km/h 4.0mph /  6.4km/h 54% 0.00in /  0mm 330 W/m2
14:34 25.7 °F /  -3.5 °C 10.5 °F /  -11.9 °C 30.67in /  1038.5hPa East 3.0mph /  4.8km/h 7.0mph /  11.3km/h 52% 0.00in /  0mm 359 W/m2
14:40 25.5 °F /  -3.6 °C 10.7 °F /  -11.8 °C 30.66in /  1038.1hPa North 3.0mph /  4.8km/h 3.0mph /  4.8km/h 53% 0.00in /  0mm 309 W/m2
14:46 25.5 °F /  -3.6 °C 10.7 °F /  -11.8 °C 30.66in /  1038.1hPa East 3.0mph /  4.8km/h 5.0mph /  8km/h 53% 0.00in /  0mm 227 W/m2
14:52 25.5 °F /  -3.6 °C 10.7 °F /  -11.8 °C 30.66in /  1038.1hPa East 3.0mph /  4.8km/h 5.0mph /  8km/h 53% 0.00in /  0mm 299 W/m2
14:58 25.4 °F /  -3.7 °C 10.6 °F /  -11.9 °C 30.66in /  1038.1hPa ENE 3.0mph /  4.8km/h 5.0mph /  8km/h 53% 0.00in /  0mm 373 W/m2
15:04 25.8 °F /  -3.4 °C 10.6 °F /  -11.9 °C 30.65in /  1037.8hPa ENE 3.0mph /  4.8km/h 4.0mph /  6.4km/h 52% 0.00in /  0mm 325 W/m2
15:10 25.7 °F /  -3.5 °C 11.3 °F /  -11.5 °C 30.65in /  1037.8hPa NE 3.0mph /  4.8km/h 3.0mph /  4.8km/h 54% 0.00in /  0mm 320 W/m2
15:16 25.9 °F /  -3.4 °C 10.7 °F /  -11.8 °C 30.65in /  1037.8hPa NE 3.0mph /  4.8km/h 4.0mph /  6.4km/h 52% 0.00in /  0mm 285 W/m2
15:22 25.8 °F /  -3.4 °C 10.6 °F /  -11.9 °C 30.65in /  1037.8hPa NNE 4.0mph /  6.4km/h 6.0mph /  9.7km/h 52% 0.00in /  0mm 285 W/m2
15:28 26.0 °F /  -3.3 °C 10.3 °F /  -12.1 °C 30.64in /  1037.5hPa ENE 3.0mph /  4.8km/h 8.0mph /  12.9km/h 51% 0.00in /  0mm 265 W/m2
15:34 25.6 °F /  -3.6 °C 10.0 °F /  -12.2 °C 30.64in /  1037.5hPa NW 3.0mph /  4.8km/h 3.0mph /  4.8km/h 51% 0.00in /  0mm 257 W/m2
15:40 25.5 °F /  -3.6 °C 10.3 °F /  -12.1 °C 30.64in /  1037.5hPa NNE 3.0mph /  4.8km/h 3.0mph /  4.8km/h 52% 0.00in /  0mm 230 W/m2
15:46 25.7 °F /  -3.5 °C 10.5 °F /  -11.9 °C 30.64in /  1037.5hPa NNW 3.0mph /  4.8km/h 3.0mph /  4.8km/h 52% 0.00in /  0mm 209 W/m2
15:52 25.6 °F /  -3.6 °C 10.0 °F /  -12.2 °C 30.63in /  1037.1hPa ENE 2.0mph /  3.2km/h 2.0mph /  3.2km/h 51% 0.00in /  0mm 172 W/m2
15:58 25.6 °F /  -3.6 °C 10.0 °F /  -12.2 °C 30.63in /  1037.1hPa NNE 3.0mph /  4.8km/h 5.0mph /  8km/h 51% 0.00in /  0mm 183 W/m2
16:04 25.9 °F /  -3.4 °C 10.7 °F /  -11.8 °C 30.63in /  1037.1hPa NE 3.0mph /  4.8km/h 5.0mph /  8km/h 52% 0.00in /  0mm 192 W/m2
16:10 25.6 °F /  -3.6 °C 9.1 °F /  -12.7 °C 30.62in /  1036.8hPa ENE 3.0mph /  4.8km/h 3.0mph /  4.8km/h 49% 0.00in /  0mm 218 W/m2
16:16 25.7 °F /  -3.5 °C 9.6 °F /  -12.4 °C 30.62in /  1036.8hPa ENE 3.0mph /  4.8km/h 3.0mph /  4.8km/h 50% 0.00in /  0mm 111 W/m2
16:22 25.9 °F /  -3.4 °C 9.8 °F /  -12.3 °C 30.61in /  1036.5hPa ENE 2.0mph /  3.2km/h 2.0mph /  3.2km/h 50% 0.00in /  0mm 91 W/m2
16:28 25.9 °F /  -3.4 °C 8.9 °F /  -12.8 °C 30.61in /  1036.5hPa ESE 3.0mph /  4.8km/h 6.0mph /  9.7km/h 48% 0.00in /  0mm 81 W/m2
16:34 25.8 °F /  -3.4 °C 9.2 °F /  -12.7 °C 30.61in /  1036.5hPa ENE 4.0mph /  6.4km/h 5.0mph /  8km/h 49% 0.00in /  0mm 72 W/m2
16:40 25.9 °F /  -3.4 °C 9.8 °F /  -12.3 °C 30.60in /  1036.1hPa East 3.0mph /  4.8km/h 3.0mph /  4.8km/h 50% 0.00in /  0mm 65 W/m2
16:46 25.8 °F /  -3.4 °C 9.7 °F /  -12.4 °C 30.59in /  1035.8hPa East 3.0mph /  4.8km/h 6.0mph /  9.7km/h 50% 0.00in /  0mm 56 W/m2
16:52 25.7 °F /  -3.5 °C 9.6 °F /  -12.4 °C 30.59in /  1035.8hPa East 3.0mph /  4.8km/h 4.0mph /  6.4km/h 50% 0.00in /  0mm 49 W/m2
16:58 25.7 °F /  -3.5 °C 10.0 °F /  -12.2 °C 30.58in /  1035.4hPa ENE 2.0mph /  3.2km/h 4.0mph /  6.4km/h 51% 0.00in /  0mm 42 W/m2
17:04 25.7 °F /  -3.5 °C 10.0 °F /  -12.2 °C 30.58in /  1035.4hPa ENE 2.0mph /  3.2km/h 5.0mph /  8km/h 51% 0.00in /  0mm 35 W/m2
17:10 25.7 °F /  -3.5 °C 10.0 °F /  -12.2 °C 30.58in /  1035.4hPa SE 2.0mph /  3.2km/h 2.0mph /  3.2km/h 51% 0.00in /  0mm 25 W/m2
17:16 25.5 °F /  -3.6 °C 9.9 °F /  -12.3 °C 30.58in /  1035.4hPa ENE 2.0mph /  3.2km/h 3.0mph /  4.8km/h 51% 0.00in /  0mm 16 W/m2
17:22 25.4 °F /  -3.7 °C 9.8 °F /  -12.3 °C 30.58in /  1035.4hPa ENE 2.0mph /  3.2km/h 2.0mph /  3.2km/h 51% 0.00in /  0mm 7 W/m2
17:28 25.3 °F /  -3.7 °C 9.2 °F /  -12.7 °C 30.57in /  1035.1hPa ENE 2.0mph /  3.2km/h 3.0mph /  4.8km/h 50% 0.00in /  0mm 0 W/m2
17:34 25.3 °F /  -3.7 °C 9.7 °F /  -12.4 °C 30.58in /  1035.4hPa ENE 2.0mph /  3.2km/h 3.0mph /  4.8km/h 51% 0.00in /  0mm 0 W/m2
17:40 25.2 °F /  -3.8 °C 9.6 °F /  -12.4 °C 30.58in /  1035.4hPa ENE 1.0mph /  1.6km/h 1.0mph /  1.6km/h 51% 0.00in /  0mm 0 W/m2
17:46 25.0 °F /  -3.9 °C 9.4 °F /  -12.6 °C 30.57in /  1035.1hPa ENE 1.0mph /  1.6km/h 1.0mph /  1.6km/h 51% 0.00in /  0mm 0 W/m2
17:52 24.6 °F /  -4.1 °C 9.5 °F /  -12.5 °C 30.57in /  1035.1hPa ENE 1.0mph /  1.6km/h 1.0mph /  1.6km/h 52% 0.00in /  0mm 0 W/m2
17:58 24.2 °F /  -4.3 °C 9.5 °F /  -12.5 °C 30.57in /  1035.1hPa Calm   1.0mph /  1.6km/h 53% 0.00in /  0mm 0 W/m2
18:04 24.1 °F /  -4.4 °C 9.4 °F /  -12.6 °C 30.56in /  1034.8hPa ENE 1.0mph /  1.6km/h 1.0mph /  1.6km/h 53% 0.00in /  0mm 0 W/m2
18:10 24.2 °F /  -4.3 °C 9.9 °F /  -12.3 °C 30.55in /  1034.4hPa ENE 1.0mph /  1.6km/h 5.0mph /  8km/h 54% 0.00in /  0mm 0 W/m2
18:16 24.3 °F /  -4.3 °C 10.0 °F /  -12.2 °C 30.55in /  1034.4hPa ENE 1.0mph /  1.6km/h 5.0mph /  8km/h 54% 0.00in /  0mm 0 W/m2
18:22 24.8 °F /  -4 °C 10.1 °F /  -12.2 °C 30.55in /  1034.4hPa ENE 2.0mph /  3.2km/h 2.0mph /  3.2km/h 53% 0.00in /  0mm 0 W/m2
18:28 24.9 °F /  -3.9 °C 10.2 °F /  -12.1 °C 30.54in /  1034.1hPa East 3.0mph /  4.8km/h 3.0mph /  4.8km/h 53% 0.00in /  0mm 0 W/m2
18:34 24.9 °F /  -3.9 °C 10.6 °F /  -11.9 °C 30.54in /  1034.1hPa ENE 2.0mph /  3.2km/h 2.0mph /  3.2km/h 54% 0.00in /  0mm 0 W/m2
18:40 24.9 °F /  -3.9 °C 10.2 °F /  -12.1 °C 30.53in /  1033.7hPa ENE 2.0mph /  3.2km/h 4.0mph /  6.4km/h 53% 0.00in /  0mm 0 W/m2
18:46 25.1 °F /  -3.8 °C 10.3 °F /  -12.1 °C 30.54in /  1034.1hPa East 3.0mph /  4.8km/h 5.0mph /  8km/h 53% 0.00in /  0mm 0 W/m2
18:52 25.0 °F /  -3.9 °C 10.7 °F /  -11.8 °C 30.54in /  1034.1hPa ENE 2.0mph /  3.2km/h 3.0mph /  4.8km/h 54% 0.00in /  0mm 0 W/m2
18:58 24.8 °F /  -4 °C 10.5 °F /  -11.9 °C 30.53in /  1033.7hPa ESE 1.0mph /  1.6km/h 3.0mph /  4.8km/h 54% 0.00in /  0mm 0 W/m2
19:04 24.8 °F /  -4 °C 10.9 °F /  -11.7 °C 30.53in /  1033.7hPa ENE 2.0mph /  3.2km/h 2.0mph /  3.2km/h 55% 0.00in /  0mm 0 W/m2
19:10 24.7 °F /  -4.1 °C 10.8 °F /  -11.8 °C 30.52in /  1033.4hPa East 1.0mph /  1.6km/h 1.0mph /  1.6km/h 55% 0.00in /  0mm 0 W/m2
19:16 24.6 °F /  -4.1 °C 11.1 °F /  -11.6 °C 30.52in /  1033.4hPa ENE 1.0mph /  1.6km/h 2.0mph /  3.2km/h 56% 0.00in /  0mm 0 W/m2
19:22 24.6 °F /  -4.1 °C 11.1 °F /  -11.6 °C 30.52in /  1033.4hPa ENE 1.0mph /  1.6km/h 2.0mph /  3.2km/h 56% 0.00in /  0mm 0 W/m2
19:28 24.7 °F /  -4.1 °C 11.2 °F /  -11.6 °C 30.52in /  1033.4hPa SE 2.0mph /  3.2km/h 2.0mph /  3.2km/h 56% 0.00in /  0mm 0 W/m2
19:34 24.8 °F /  -4 °C 11.7 °F /  -11.3 °C 30.51in /  1033.1hPa East 1.0mph /  1.6km/h 3.0mph /  4.8km/h 57% 0.00in /  0mm 0 W/m2
19:40 24.7 °F /  -4.1 °C 11.2 °F /  -11.6 °C 30.50in /  1032.7hPa SE 1.0mph /  1.6km/h 2.0mph /  3.2km/h 56% 0.00in /  0mm 0 W/m2
19:46 24.7 °F /  -4.1 °C 11.6 °F /  -11.3 °C 30.50in /  1032.7hPa ESE 1.0mph /  1.6km/h 3.0mph /  4.8km/h 57% 0.00in /  0mm 0 W/m2
19:52 24.5 °F /  -4.2 °C 11.4 °F /  -11.4 °C 30.50in /  1032.7hPa East 1.0mph /  1.6km/h 1.0mph /  1.6km/h 57% 0.00in /  0mm 0 W/m2
19:58 24.5 °F /  -4.2 °C 11.4 °F /  -11.4 °C 30.50in /  1032.7hPa East 1.0mph /  1.6km/h 3.0mph /  4.8km/h 57% 0.00in /  0mm 0 W/m2
20:04 24.2 °F /  -4.3 °C 11.1 °F /  -11.6 °C 30.49in /  1032.4hPa Calm   1.0mph /  1.6km/h 57% 0.00in /  0mm 0 W/m2
20:10 24.0 °F /  -4.4 °C 11.3 °F /  -11.5 °C 30.49in /  1032.4hPa Calm     58% 0.00in /  0mm 0 W/m2
20:16 24.0 °F /  -4.4 °C 11.3 °F /  -11.5 °C 30.49in /  1032.4hPa Calm   2.0mph /  3.2km/h 58% 0.00in /  0mm 0 W/m2
20:22 24.0 °F /  -4.4 °C 11.7 °F /  -11.3 °C 30.49in /  1032.4hPa Calm   2.0mph /  3.2km/h 59% 0.00in /  0mm 0 W/m2
20:28 23.9 °F /  -4.5 °C 12.0 °F /  -11.1 °C 30.49in /  1032.4hPa Calm   2.0mph /  3.2km/h 60% 0.00in /  0mm 0 W/m2
20:34 23.7 °F /  -4.6 °C 11.8 °F /  -11.2 °C 30.48in /  1032.1hPa East 1.0mph /  1.6km/h 1.0mph /  1.6km/h 60% 0.00in /  0mm 0 W/m2
20:40 23.6 °F /  -4.7 °C 11.7 °F /  -11.3 °C 30.47in /  1031.7hPa ENE 1.0mph /  1.6km/h 1.0mph /  1.6km/h 60% 0.00in /  0mm 0 W/m2
20:46 23.5 °F /  -4.7 °C 12.0 °F /  -11.1 °C 30.47in /  1031.7hPa East 1.0mph /  1.6km/h 2.0mph /  3.2km/h 61% 0.00in /  0mm 0 W/m2
20:52 23.3 °F /  -4.8 °C 11.8 °F /  -11.2 °C 30.47in /  1031.7hPa NE 1.0mph /  1.6km/h 2.0mph /  3.2km/h 61% 0.00in /  0mm 0 W/m2
20:58 23.4 °F /  -4.8 °C 11.9 °F /  -11.2 °C 30.47in /  1031.7hPa ENE 1.0mph /  1.6km/h 2.0mph /  3.2km/h 61% 0.00in /  0mm 0 W/m2
21:04 23.3 °F /  -4.8 °C 11.8 °F /  -11.2 °C 30.46in /  1031.4hPa East 1.0mph /  1.6km/h 3.0mph /  4.8km/h 61% 0.00in /  0mm 0 W/m2
21:10 23.5 °F /  -4.7 °C 12.0 °F /  -11.1 °C 30.46in /  1031.4hPa SE 1.0mph /  1.6km/h 1.0mph /  1.6km/h 61% 0.00in /  0mm 0 W/m2
21:16 23.1 °F /  -4.9 °C 12.0 °F /  -11.1 °C 30.46in /  1031.4hPa East 1.0mph /  1.6km/h 3.0mph /  4.8km/h 62% 0.00in /  0mm 0 W/m2
21:22 22.6 °F /  -5.2 °C 11.9 °F /  -11.2 °C 30.45in /  1031hPa East 1.0mph /  1.6km/h 1.0mph /  1.6km/h 63% 0.00in /  0mm 0 W/m2
21:28 22.2 °F /  -5.4 °C 11.9 °F /  -11.2 °C 30.44in /  1030.7hPa Calm   1.0mph /  1.6km/h 64% 0.00in /  0mm 0 W/m2
21:34 22.2 °F /  -5.4 °C 12.2 °F /  -11 °C 30.44in /  1030.7hPa Calm   2.0mph /  3.2km/h 65% 0.00in /  0mm 0 W/m2
21:40 22.4 °F /  -5.3 °C 12.4 °F /  -10.9 °C 30.43in /  1030.4hPa East 1.0mph /  1.6km/h 1.0mph /  1.6km/h 65% 0.00in /  0mm 0 W/m2
21:46 22.8 °F /  -5.1 °C 12.4 °F /  -10.9 °C 30.43in /  1030.4hPa ENE 2.0mph /  3.2km/h 7.0mph /  11.3km/h 64% 0.00in /  0mm 0 W/m2
21:52 23.0 °F /  -5 °C 12.6 °F /  -10.8 °C 30.43in /  1030.4hPa ENE 1.0mph /  1.6km/h 1.0mph /  1.6km/h 64% 0.00in /  0mm 0 W/m2
21:58 22.9 °F /  -5.1 °C 12.9 °F /  -10.6 °C 30.42in /  1030hPa ENE 1.0mph /  1.6km/h 1.0mph /  1.6km/h 65% 0.00in /  0mm 0 W/m2
22:04 23.0 °F /  -5 °C 13.0 °F /  -10.6 °C 30.43in /  1030.4hPa ENE 1.0mph /  1.6km/h 1.0mph /  1.6km/h 65% 0.00in /  0mm 0 W/m2
22:10 23.1 °F /  -4.9 °C 13.1 °F /  -10.5 °C 30.42in /  1030hPa East 1.0mph /  1.6km/h 2.0mph /  3.2km/h 65% 0.00in /  0mm 0 W/m2
22:16 23.2 °F /  -4.9 °C 13.2 °F /  -10.4 °C 30.42in /  1030hPa ENE 2.0mph /  3.2km/h 2.0mph /  3.2km/h 65% 0.00in /  0mm 0 W/m2
22:22 23.2 °F /  -4.9 °C 13.2 °F /  -10.4 °C 30.42in /  1030hPa ENE 2.0mph /  3.2km/h 3.0mph /  4.8km/h 65% 0.00in /  0mm 0 W/m2
22:28 23.3 °F /  -4.8 °C 13.3 °F /  -10.4 °C 30.42in /  1030hPa ENE 1.0mph /  1.6km/h 3.0mph /  4.8km/h 65% 0.00in /  0mm 0 W/m2
22:34 23.5 °F /  -4.7 °C 13.1 °F /  -10.5 °C 30.42in /  1030hPa ENE 1.0mph /  1.6km/h 2.0mph /  3.2km/h 64% 0.00in /  0mm 0 W/m2
22:40 23.5 °F /  -4.7 °C 13.5 °F /  -10.3 °C 30.41in /  1029.7hPa ENE 1.0mph /  1.6km/h 1.0mph /  1.6km/h 65% 0.00in /  0mm 0 W/m2
22:46 23.5 °F /  -4.7 °C 13.1 °F /  -10.5 °C 30.41in /  1029.7hPa Calm   2.0mph /  3.2km/h 64% 0.00in /  0mm 0 W/m2
22:52 23.4 °F /  -4.8 °C 13.4 °F /  -10.3 °C 30.41in /  1029.7hPa ENE 1.0mph /  1.6km/h 1.0mph /  1.6km/h 65% 0.00in /  0mm 0 W/m2
22:58 23.2 °F /  -4.9 °C 13.5 °F /  -10.3 °C 30.41in /  1029.7hPa Calm   1.0mph /  1.6km/h 66% 0.00in /  0mm 0 W/m2
23:04 23.3 °F /  -4.8 °C 13.6 °F /  -10.2 °C 30.41in /  1029.7hPa ENE 1.0mph /  1.6km/h 2.0mph /  3.2km/h 66% 0.00in /  0mm 0 W/m2
23:10 23.1 °F /  -4.9 °C 13.8 °F /  -10.1 °C 30.40in /  1029.3hPa ENE 1.0mph /  1.6km/h 1.0mph /  1.6km/h 67% 0.00in /  0mm 0 W/m2
23:16 22.9 °F /  -5.1 °C 13.9 °F /  -10.1 °C 30.40in /  1029.3hPa ENE 1.0mph /  1.6km/h 1.0mph /  1.6km/h 68% 0.00in /  0mm 0 W/m2
23:22 22.9 °F /  -5.1 °C 14.2 °F /  -9.9 °C 30.39in /  1029hPa Calm   1.0mph /  1.6km/h 69% 0.00in /  0mm 0 W/m2
23:28 23.0 °F /  -5 °C 14.3 °F /  -9.8 °C 30.38in /  1028.7hPa Calm   1.0mph /  1.6km/h 69% 0.00in /  0mm 0 W/m2
23:34 22.9 °F /  -5.1 °C 14.2 °F /  -9.9 °C 30.38in /  1028.7hPa Calm     69% 0.00in /  0mm 0 W/m2
23:40 22.7 °F /  -5.2 °C 14.1 °F /  -9.9 °C 30.38in /  1028.7hPa ENE 1.0mph /  1.6km/h 1.0mph /  1.6km/h 69% 0.00in /  0mm 0 W/m2
23:46 22.5 °F /  -5.3 °C 13.9 °F /  -10.1 °C 30.36in /  1028hPa ENE 1.0mph /  1.6km/h 1.0mph /  1.6km/h 69% 0.00in /  0mm 0 W/m2
23:52 22.2 °F /  -5.4 °C 13.2 °F /  -10.4 °C 30.36in /  1028hPa Calm   1.0mph /  1.6km/h 68% 0.00in /  0mm 0 W/m2
23:58 22.2 °F /  -5.4 °C 13.6 °F /  -10.2 °C 30.36in /  1028hPa NE 1.0mph /  1.6km/h 3.0mph /  4.8km/h 69% 0.00in /  0mm 0 W/m2
Country Meadow, Clay, NY, USA
Compliments of Weather Underground - 2 mb